Time;durP1;ratioP1;P1;durP2;ratioP2;P2;SDS_P1;SDS_P2;PMS_P1;PMS_P2;Temp;Humidity;BMP_temperature;BMP_pressure;BME280_temperature;BME280_humidity;BME280_pressure;Samples;Min_cycle;Max_cycle;Signal;HPM_P1;HPM_P2
2023/06/26 00:01:05;;;;;;;13.27;7.45;;;;;;;;;;6218423;28;20499;-73
2023/06/26 00:04:05;;;;;;;12.70;7.17;;;;;;;;;;6218579;28;20096;-73
2023/06/26 00:07:05;;;;;;;11.87;7.00;;;;;;;;;;6218359;28;20022;-73
2023/06/26 00:10:05;;;;;;;12.97;6.90;;;;;;;;;;6218370;28;20022;-73
2023/06/26 00:13:06;;;;;;;10.87;6.80;;;;;;;;;;6217836;28;20053;-73
2023/06/26 00:16:06;;;;;;;9.18;4.97;;;;;;;;;;6218072;28;20022;-73
2023/06/26 00:19:08;;;;;;;13.90;6.28;;;;;;;;;;6217610;28;20435;-73
2023/06/26 00:22:08;;;;;;;14.20;6.47;;;;;;;;;;6218233;28;20014;-73
2023/06/26 00:25:08;;;;;;;9.13;5.30;;;;;;;;;;6212475;28;20014;-73
2023/06/26 00:28:08;;;;;;;10.27;6.53;;;;;;;;;;6217753;28;20056;-73
2023/06/26 00:31:09;;;;;;;12.77;6.27;;;;;;;;;;6217441;28;20033;-73
2023/06/26 00:34:09;;;;;;;12.00;8.20;;;;;;;;;;6217908;28;20037;-73
2023/06/26 00:37:09;;;;;;;13.85;6.85;;;;;;;;;;6217574;28;20366;-73
2023/06/26 00:40:09;;;;;;;16.87;9.23;;;;;;;;;;6217234;28;20025;-73
2023/06/26 00:43:10;;;;;;;13.50;7.50;;;;;;;;;;6217927;28;20052;-73
2023/06/26 00:46:11;;;;;;;14.30;7.03;;;;;;;;;;6217599;28;20029;-73
2023/06/26 00:49:12;;;;;;;;;;;;;;;;;;6219131;28;20026;-73
2023/06/26 00:52:12;;;;;;;12.32;6.07;;;;;;;;;;6212561;28;20252;-74
2023/06/26 00:55:12;;;;;;;11.17;6.47;;;;;;;;;;6217868;28;20025;-73
2023/06/26 00:58:12;;;;;;;12.57;6.20;;;;;;;;;;6216591;28;20802;-73
2023/06/26 01:01:17;;;;;;;12.83;6.83;;;;;;;;;;6220037;28;20080;-73
2023/06/26 01:04:17;;;;;;;10.88;7.13;;;;;;;;;;6223193;28;20022;-73
2023/06/26 01:07:18;;;;;;;11.77;6.83;;;;;;;;;;6220172;28;20069;-73
2023/06/26 01:10:18;;;;;;;10.93;6.07;;;;;;;;;;6222053;28;20032;-73
2023/06/26 01:13:19;;;;;;;12.00;6.90;;;;;;;;;;6221966;28;20269;-80
2023/06/26 01:16:20;;;;;;;12.60;7.43;;;;;;;;;;6223088;28;20030;-80
2023/06/26 01:19:27;;;;;;;13.87;7.83;;;;;;;;;;6221218;28;20029;-82
2023/06/26 01:22:27;;;;;;;13.00;7.70;;;;;;;;;;6222253;28;20037;-81
2023/06/26 01:25:47;;;;;;;15.15;7.35;;;;;;;;;;6222702;28;20097;-81
2023/06/26 01:28:48;;;;;;;13.98;7.80;;;;;;;;;;6217782;28;20118;-80
2023/06/26 01:31:49;;;;;;;14.43;8.40;;;;;;;;;;6218808;28;20033;-81
2023/06/26 01:34:49;;;;;;;13.53;7.57;;;;;;;;;;6219681;28;20480;-81
2023/06/26 01:37:49;;;;;;;13.48;7.68;;;;;;;;;;6202585;28;20064;-79
2023/06/26 01:40:50;;;;;;;12.48;6.47;;;;;;;;;;6220933;28;20106;-79
2023/06/26 01:43:59;;;;;;;12.07;6.53;;;;;;;;;;6221945;28;20396;-82
2023/06/26 01:47:03;;;;;;;10.90;6.75;;;;;;;;;;6221813;28;20396;-81
2023/06/26 01:50:09;;;;;;;8.50;5.13;;;;;;;;;;6216856;28;20036;-82
2023/06/26 01:53:16;;;;;;;9.57;5.95;;;;;;;;;;6221751;28;20484;-81
2023/06/26 01:56:18;;;;;;;9.40;5.03;;;;;;;;;;6220098;28;20571;-81
2023/06/26 01:59:20;;;;;;;11.27;6.07;;;;;;;;;;6221446;28;20109;-79
2023/06/26 02:02:20;;;;;;;10.20;5.68;;;;;;;;;;6220083;28;20022;-79
2023/06/26 02:05:20;;;;;;;10.33;5.97;;;;;;;;;;6220936;28;20388;-80
2023/06/26 02:08:22;;;;;;;9.93;5.97;;;;;;;;;;6221203;28;20026;-78
2023/06/26 02:11:23;;;;;;;12.07;6.60;;;;;;;;;;6220175;28;20030;-79
2023/06/26 02:14:23;;;;;;;11.73;6.67;;;;;;;;;;6220231;28;20116;-78
2023/06/26 02:17:23;;;;;;;13.27;7.13;;;;;;;;;;6220708;28;20021;-78
2023/06/26 02:20:23;;;;;;;11.50;5.90;;;;;;;;;;6221163;28;20775;-80
2023/06/26 02:23:23;;;;;;;8.60;4.90;;;;;;;;;;6220323;28;20113;-80
2023/06/26 02:26:24;;;;;;;14.03;6.80;;;;;;;;;;6220286;28;20029;-80
2023/06/26 02:29:24;;;;;;;11.40;6.77;;;;;;;;;;6220136;28;20295;-81
2023/06/26 02:32:24;;;;;;;11.73;7.05;;;;;;;;;;6220689;28;20454;-81
2023/06/26 02:35:25;;;;;;;17.70;8.43;;;;;;;;;;6219344;28;20037;-79
2023/06/26 02:38:25;;;;;;;14.75;8.18;;;;;;;;;;6219708;28;20061;-78
2023/06/26 02:41:25;;;;;;;14.93;8.27;;;;;;;;;;6219655;28;20272;-79
2023/06/26 02:44:25;;;;;;;14.85;8.70;;;;;;;;;;6219918;28;20057;-80
2023/06/26 02:47:25;;;;;;;16.63;7.70;;;;;;;;;;6219601;28;20076;-81
2023/06/26 02:50:26;;;;;;;16.65;7.35;;;;;;;;;;6215192;28;20049;-79
2023/06/26 02:53:26;;;;;;;15.00;7.93;;;;;;;;;;6219789;28;20040;-80
2023/06/26 02:56:29;;;;;;;16.63;7.63;;;;;;;;;;6219464;28;20025;-79
2023/06/26 02:59:29;;;;;;;10.05;6.15;;;;;;;;;;6219927;28;20030;-78
2023/06/26 03:02:29;;;;;;;9.48;5.75;;;;;;;;;;6218485;28;20100;-79
2023/06/26 03:05:30;;;;;;;11.40;6.03;;;;;;;;;;6219255;28;20045;-79
2023/06/26 03:08:30;;;;;;;9.60;6.18;;;;;;;;;;6219403;28;20476;-79
2023/06/26 03:11:30;;;;;;;11.90;6.70;;;;;;;;;;6201619;28;20112;-79
2023/06/26 03:14:31;;;;;;;13.68;5.35;;;;;;;;;;6215890;28;20452;-77
2023/06/26 03:17:32;;;;;;;10.27;6.18;;;;;;;;;;6216366;28;20110;-79
2023/06/26 03:20:32;;;;;;;16.13;7.33;;;;;;;;;;6216877;28;20481;-79
2023/06/26 03:23:32;;;;;;;13.10;7.13;;;;;;;;;;6218086;28;20026;-79
2023/06/26 03:26:32;;;;;;;18.50;8.27;;;;;;;;;;6218472;28;20026;-77
2023/06/26 03:29:33;;;;;;;14.63;8.07;;;;;;;;;;6218696;28;20136;-78
2023/06/26 03:32:33;;;;;;;23.02;8.85;;;;;;;;;;6200687;28;20579;-78
2023/06/26 03:35:33;;;;;;;17.80;8.87;;;;;;;;;;6213851;28;20276;-77
2023/06/26 03:38:33;;;;;;;17.88;9.85;;;;;;;;;;6217919;28;20469;-78
2023/06/26 03:41:33;;;;;;;16.55;10.45;;;;;;;;;;6217685;28;20049;-72
2023/06/26 03:44:33;;;;;;;20.88;10.73;;;;;;;;;;6211263;28;20499;-72
2023/06/26 03:47:34;;;;;;;16.73;9.50;;;;;;;;;;6217957;28;20068;-72
2023/06/26 03:50:34;;;;;;;20.33;11.50;;;;;;;;;;6215510;28;20504;-72
2023/06/26 03:53:34;;;;;;;19.63;10.70;;;;;;;;;;6217181;28;20017;-72
2023/06/26 03:56:34;;;;;;;23.33;11.00;;;;;;;;;;6217814;28;20073;-72
2023/06/26 03:59:35;;;;;;;23.98;14.65;;;;;;;;;;6218677;28;20021;-72
2023/06/26 04:02:36;;;;;;;22.52;12.32;;;;;;;;;;6217661;28;20029;-72
2023/06/26 04:05:36;;;;;;;28.27;16.00;;;;;;;;;;6218905;28;20465;-72
2023/06/26 04:08:36;;;;;;;22.53;13.83;;;;;;;;;;6218619;28;20065;-71
2023/06/26 04:11:36;;;;;;;22.47;13.67;;;;;;;;;;6217996;28;20049;-72
2023/06/26 04:14:37;;;;;;;22.30;12.27;;;;;;;;;;6201351;28;20101;-72
2023/06/26 04:17:37;;;;;;;22.83;12.93;;;;;;;;;;6214301;28;20038;-72
2023/06/26 04:21:00;;;;;;;19.67;12.80;;;;;;;;;;6215432;28;20022;-72
2023/06/26 04:24:00;;;;;;;22.45;13.18;;;;;;;;;;6218733;28;20476;-79
2023/06/26 04:27:00;;;;;;;21.33;13.07;;;;;;;;;;6217918;28;20025;-81
2023/06/26 04:30:01;;;;;;;24.13;12.70;;;;;;;;;;6217071;28;20221;-78
2023/06/26 04:33:01;;;;;;;21.60;11.43;;;;;;;;;;6218142;28;20028;-79
2023/06/26 04:36:03;;;;;;;24.10;12.03;;;;;;;;;;6216564;28;20026;-79
2023/06/26 04:39:04;;;;;;;21.00;12.02;;;;;;;;;;6213291;28;20025;-79
2023/06/26 04:42:05;;;;;;;21.65;12.15;;;;;;;;;;6199758;28;20030;-80
2023/06/26 04:45:05;;;;;;;16.87;11.57;;;;;;;;;;6218204;28;20645;-79
2023/06/26 04:48:06;;;;;;;21.20;11.87;;;;;;;;;;6217210;28;20444;-79
2023/06/26 04:51:06;;;;;;;20.13;10.50;;;;;;;;;;6217504;28;20439;-78
2023/06/26 04:54:07;;;;;;;19.23;12.33;;;;;;;;;;6217242;28;20029;-79
2023/06/26 04:57:08;;;;;;;18.50;11.20;;;;;;;;;;6200916;28;20128;-79
2023/06/26 05:00:10;;;;;;;16.88;10.40;;;;;;;;;;6216871;28;20026;-79
2023/06/26 05:03:11;;;;;;;15.75;10.52;;;;;;;;;;6217445;28;20037;-79
2023/06/26 05:06:12;;;;;;;19.85;11.02;;;;;;;;;;6217698;28;20105;-79
2023/06/26 05:09:12;;;;;;;19.77;12.40;;;;;;;;;;6217790;28;20469;-78
2023/06/26 05:12:12;;;;;;;19.48;10.77;;;;;;;;;;6211457;28;20021;-79
2023/06/26 05:15:12;;;;;;;19.30;11.37;;;;;;;;;;6217892;28;20026;-79
2023/06/26 05:18:13;;;;;;;19.10;9.95;;;;;;;;;;6209127;28;20034;-78
2023/06/26 05:21:13;;;;;;;19.50;10.67;;;;;;;;;;6215082;28;20065;-78
2023/06/26 05:24:15;;;;;;;19.33;10.77;;;;;;;;;;6218013;28;20042;-79
2023/06/26 05:27:21;;;;;;;19.05;11.07;;;;;;;;;;6196452;28;20037;-78
2023/06/26 05:30:21;;;;;;;21.35;9.85;;;;;;;;;;6213628;28;20503;-78
2023/06/26 05:33:23;;;;;;;15.63;10.47;;;;;;;;;;6217122;28;20029;-74
2023/06/26 05:36:23;;;;;;;;;;;;;;;;;;6214090;28;20115;-74
2023/06/26 05:39:24;;;;;;;13.73;7.97;;;;;;;;;;6216588;28;19914;-74
2023/06/26 05:42:26;;;;;;;20.93;11.57;;;;;;;;;;6217287;28;20040;-74
2023/06/26 05:45:26;;;;;;;17.80;11.13;;;;;;;;;;6215238;28;20365;-74
2023/06/26 05:48:26;;;;;;;13.87;8.77;;;;;;;;;;6220047;28;20034;-75
2023/06/26 05:51:27;;;;;;;16.27;10.10;;;;;;;;;;6203526;28;20061;-75
2023/06/26 05:54:27;;;;;;;13.25;8.50;;;;;;;;;;6221061;28;20395;-75
2023/06/26 05:57:28;;;;;;;15.87;7.53;;;;;;;;;;6220899;28;20038;-74
2023/06/26 06:00:29;;;;;;;13.88;8.45;;;;;;;;;;6218412;28;20435;-75
2023/06/26 06:03:29;;;;;;;12.40;8.10;;;;;;;;;;6219832;28;20567;-75
2023/06/26 06:06:29;;;;;;;14.97;9.63;;;;;;;;;;6220415;28;20022;-74
2023/06/26 06:09:29;;;;;;;14.87;8.37;;;;;;;;;;6221126;28;20037;-75
2023/06/26 06:12:30;;;;;;;16.17;9.88;;;;;;;;;;6220303;28;20022;-75
2023/06/26 06:15:30;;;;;;;14.10;7.70;;;;;;;;;;6224803;28;20069;-74
2023/06/26 06:18:30;;;;;;;14.18;8.70;;;;;;;;;;6207638;28;20057;-75
2023/06/26 06:21:30;;;;;;;12.77;7.60;;;;;;;;;;6202239;28;20088;-80
2023/06/26 06:24:30;;;;;;;11.43;7.05;;;;;;;;;;6212988;28;20444;-79
2023/06/26 06:27:31;;;;;;;14.77;8.57;;;;;;;;;;6217511;28;20045;-79
2023/06/26 06:30:31;;;;;;;14.10;7.68;;;;;;;;;;6215527;28;20030;-80
2023/06/26 06:33:31;;;;;;;;;;;;;;;;;;6212514;28;20069;-80
2023/06/26 06:36:31;;;;;;;13.02;6.72;;;;;;;;;;6216294;28;19924;-80
2023/06/26 06:39:31;;;;;;;;;;;;;;;;;;6219384;28;20022;-80
2023/06/26 06:42:32;;;;;;;10.88;7.00;;;;;;;;;;6216963;28;19921;-80
2023/06/26 06:45:33;;;;;;;15.10;6.90;;;;;;;;;;6216158;28;20098;-81
2023/06/26 06:48:33;;;;;;;;;;;;;;;;;;6216487;28;20381;-81
2023/06/26 06:51:33;;;;;;;11.45;5.82;;;;;;;;;;6212062;28;19988;-81
2023/06/26 06:54:33;;;;;;;;;;;;;;;;;;6217317;28;20034;-83
2023/06/26 06:57:35;;;;;;;10.75;6.53;;;;;;;;;;6214986;28;20374;-82
2023/06/26 07:00:35;;;;;;;9.95;6.68;;;;;;;;;;6219740;28;20763;-81
2023/06/26 07:03:35;;;;;;;;;;;;;;;;;;6217627;28;20013;-82
2023/06/26 07:06:36;;;;;;;12.73;7.50;;;;;;;;;;6219796;28;19909;-82
2023/06/26 07:09:36;;;;;;;;;;;;;;;;;;6219772;28;20025;-82
2023/06/26 07:12:36;;;;;;;14.63;7.07;;;;;;;;;;6219839;28;19961;-82
2023/06/26 07:15:36;;;;;;;;;;;;;;;;;;6219142;28;20049;-83
2023/06/26 07:18:37;;;;;;;8.52;6.20;;;;;;;;;;6218482;28;19913;-85
2023/06/26 07:21:37;;;;;;;9.30;5.78;;;;;;;;;;6201785;28;20048;-85
2023/06/26 07:24:37;;;;;;;;;;;;;;;;;;6209939;28;20030;-85
2023/06/26 07:27:38;;;;;;;11.75;6.35;;;;;;;;;;6209250;28;19948;-84
2023/06/26 07:30:38;;;;;;;11.40;5.68;;;;;;;;;;6215796;28;20515;-82
2023/06/26 07:33:38;;;;;;;11.80;7.07;;;;;;;;;;6211415;28;20144;-81
2023/06/26 07:36:39;;;;;;;9.53;6.20;;;;;;;;;;6213532;28;20281;-82
2023/06/26 07:39:39;;;;;;;11.83;6.30;;;;;;;;;;6218154;28;20018;-82
2023/06/26 07:42:40;;;;;;;10.93;6.37;;;;;;;;;;6219217;28;20109;-83
2023/06/26 07:45:40;;;;;;;11.20;6.43;;;;;;;;;;6217386;28;20152;-81
2023/06/26 07:48:40;;;;;;;8.47;5.40;;;;;;;;;;6219060;28;20439;-82
2023/06/26 07:51:41;;;;;;;11.35;5.20;;;;;;;;;;6216432;28;20105;-81
2023/06/26 07:54:41;;;;;;;15.23;5.83;;;;;;;;;;6213223;28;20065;-81
2023/06/26 07:57:41;;;;;;;8.50;5.17;;;;;;;;;;6217215;28;20302;-82
2023/06/26 08:00:41;;;;;;;20.67;6.00;;;;;;;;;;6216699;28;20014;-83
2023/06/26 08:03:42;;;;;;;7.93;4.97;;;;;;;;;;6217802;28;20030;-82
2023/06/26 08:06:42;;;;;;;10.73;5.45;;;;;;;;;;6216852;28;20490;-81
2023/06/26 08:09:42;;;;;;;13.48;5.57;;;;;;;;;;6222390;28;20018;-82
2023/06/26 08:12:44;;;;;;;7.83;4.73;;;;;;;;;;6211942;28;20029;-84
2023/06/26 08:15:45;;;;;;;10.18;4.30;;;;;;;;;;6216308;28;20408;-82
2023/06/26 08:18:45;;;;;;;7.67;4.50;;;;;;;;;;6217901;28;20124;-82
2023/06/26 08:21:46;;;;;;;5.63;3.60;;;;;;;;;;6215020;28;20347;-82
2023/06/26 08:24:46;;;;;;;7.10;3.90;;;;;;;;;;6217867;28;20018;-82
2023/06/26 08:27:46;;;;;;;4.93;3.33;;;;;;;;;;6218658;28;20133;-82
2023/06/26 08:30:46;;;;;;;5.25;3.55;;;;;;;;;;6218987;28;20360;-82
2023/06/26 08:33:47;;;;;;;6.78;3.55;;;;;;;;;;6222710;28;20420;-80
2023/06/26 08:36:47;;;;;;;5.72;3.58;;;;;;;;;;6224383;28;20057;-83
2023/06/26 08:39:47;;;;;;;5.27;3.03;;;;;;;;;;6219995;28;20102;-83
2023/06/26 08:42:52;;;;;;;4.90;3.28;;;;;;;;;;6216749;28;20064;-75
2023/06/26 08:45:52;;;;;;;5.40;3.28;;;;;;;;;;6217761;28;20024;-75
2023/06/26 08:48:57;;;;;;;7.23;3.97;;;;;;;;;;6217855;28;20018;-75
2023/06/26 08:52:01;;;;;;;7.65;3.42;;;;;;;;;;6216794;28;20030;-75
2023/06/26 08:55:02;;;;;;;6.88;3.75;;;;;;;;;;6222166;28;20751;-74
2023/06/26 08:58:02;;;;;;;5.22;3.60;;;;;;;;;;6208327;28;20022;-75
2023/06/26 09:01:02;;;;;;;;;;;;;;;;;;6207977;28;20465;-74
2023/06/26 09:04:02;;;;;;;6.07;3.60;;;;;;;;;;6206221;28;20407;-74
2023/06/26 09:07:03;;;;;;;5.97;3.03;;;;;;;;;;6216245;28;20069;-74
2023/06/26 09:10:03;;;;;;;;;;;;;;;;;;6213134;28;20264;-75
2023/06/26 09:13:03;;;;;;;7.35;3.30;;;;;;;;;;6217317;28;19909;-75
2023/06/26 09:16:05;;;;;;;5.20;2.80;;;;;;;;;;6213467;28;20129;-75
2023/06/26 09:19:08;;;;;;;6.15;3.72;;;;;;;;;;6217220;28;20326;-75
2023/06/26 09:22:13;;;;;;;4.93;3.25;;;;;;;;;;6214138;28;20014;-75
2023/06/26 09:25:13;;;;;;;5.72;3.58;;;;;;;;;;6216955;28;20033;-76
2023/06/26 09:28:14;;;;;;;6.57;3.72;;;;;;;;;;6222146;28;20046;-75
2023/06/26 09:31:15;;;;;;;6.18;3.65;;;;;;;;;;6221533;28;20025;-74
2023/06/26 09:34:15;;;;;;;;;;;;;;;;;;6203992;28;20028;-75
2023/06/26 09:37:15;;;;;;;5.47;3.55;;;;;;;;;;6221016;28;19924;-75
2023/06/26 09:40:16;;;;;;;7.50;4.23;;;;;;;;;;6216065;28;20072;-75
2023/06/26 09:43:18;;;;;;;8.30;3.97;;;;;;;;;;6202158;28;20018;-75
2023/06/26 09:46:22;;;;;;;5.47;3.95;;;;;;;;;;6219373;28;20105;-75
2023/06/26 09:49:23;;;;;;;6.60;3.78;;;;;;;;;;6221460;28;20492;-76
2023/06/26 09:52:25;;;;;;;5.32;3.30;;;;;;;;;;6218808;28;20014;-82
2023/06/26 09:55:26;;;;;;;5.47;4.00;;;;;;;;;;6222038;28;20018;-85
2023/06/26 09:58:26;;;;;;;;;;;;;;;;;;6221938;28;20443;-85
2023/06/26 10:01:27;;;;;;;5.65;3.53;;;;;;;;;;6220771;28;19905;-85
2023/06/26 10:04:27;;;;;;;;;;;;;;;;;;6216667;28;20392;-85
2023/06/26 10:07:27;;;;;;;7.00;4.15;;;;;;;;;;6201060;28;19909;-83
2023/06/26 10:10:27;;;;;;;;;;;;;;;;;;6201452;28;20025;-82
2023/06/26 10:13:30;;;;;;;5.60;4.13;;;;;;;;;;6215103;28;19909;-75
2023/06/26 10:16:31;;;;;;;6.82;4.07;;;;;;;;;;6216476;28;22324;-75
2023/06/26 10:19:31;;;;;;;;;;;;;;;;;;6216834;28;20014;-75
2023/06/26 10:22:33;;;;;;;7.82;4.05;;;;;;;;;;6213464;28;19972;-75
2023/06/26 10:25:34;;;;;;;12.27;4.07;;;;;;;;;;6215185;28;20370;-75
2023/06/26 10:28:34;;;;;;;;;;;;;;;;;;6218675;28;20057;-75
2023/06/26 10:31:35;;;;;;;7.53;3.22;;;;;;;;;;6220425;28;19920;-75
2023/06/26 10:34:35;;;;;;;;;;;;;;;;;;6219359;28;20103;-74
2023/06/26 10:37:46;;;;;;;7.97;3.92;;;;;;;;;;6217293;28;19921;-75
2023/06/26 10:40:48;;;;;;;7.25;4.32;;;;;;;;;;6219147;28;20018;-75
2023/06/26 10:43:49;;;;;;;5.95;4.20;;;;;;;;;;6219507;28;20105;-75
2023/06/26 10:46:50;;;;;;;;;;;;;;;;;;6214906;28;20388;-75
2023/06/26 10:49:50;;;;;;;9.27;4.03;;;;;;;;;;6219428;28;19920;-75
2023/06/26 10:52:50;;;;;;;;;;;;;;;;;;6220411;28;20028;-75
2023/06/26 10:56:00;;;;;;;8.43;3.88;;;;;;;;;;6219250;28;19909;-76
2023/06/26 10:59:11;;;;;;;9.77;4.23;;;;;;;;;;6218965;28;20022;-75
2023/06/26 11:02:11;;;;;;;7.27;4.10;;;;;;;;;;6215676;28;20359;-74
2023/06/26 11:05:23;;;;;;;8.05;4.30;;;;;;;;;;6219353;28;20040;-75
2023/06/26 11:08:43;;;;;;;12.23;4.95;;;;;;;;;;6218808;28;20033;-74
2023/06/26 11:11:57;;;;;;;7.40;4.60;;;;;;;;;;6212464;28;20034;-81
2023/06/26 11:14:57;;;;;;;6.90;4.25;;;;;;;;;;6218539;28;20041;-83
2023/06/26 11:17:57;;;;;;;5.90;3.90;;;;;;;;;;6218789;28;20025;-82
2023/06/26 11:21:07;;;;;;;5.67;3.17;;;;;;;;;;6216663;28;20442;-84
2023/06/26 11:24:08;;;;;;;6.37;3.37;;;;;;;;;;6212845;28;20028;-74
2023/06/26 11:27:08;;;;;;;6.50;4.13;;;;;;;;;;6214500;28;20033;-74
2023/06/26 11:30:10;;;;;;;5.25;3.83;;;;;;;;;;6218635;28;20028;-74
2023/06/26 11:33:10;;;;;;;5.25;3.58;;;;;;;;;;6218730;28;20076;-74
2023/06/26 11:36:10;;;;;;;6.03;3.70;;;;;;;;;;6216550;28;20034;-74
2023/06/26 11:39:10;;;;;;;7.43;3.80;;;;;;;;;;6195858;28;20404;-74
2023/06/26 11:42:11;;;;;;;5.40;3.33;;;;;;;;;;6214057;28;20121;-75
2023/06/26 11:45:11;;;;;;;6.17;4.03;;;;;;;;;;6218335;28;20480;-74
2023/06/26 11:48:11;;;;;;;7.72;3.75;;;;;;;;;;6218354;28;20033;-74
2023/06/26 11:51:17;;;;;;;7.73;3.70;;;;;;;;;;6219062;28;20026;-74
2023/06/26 11:54:27;;;;;;;5.40;3.80;;;;;;;;;;6195235;28;20132;-74
2023/06/26 11:57:30;;;;;;;4.50;3.17;;;;;;;;;;6216838;28;20033;-74
2023/06/26 12:00:32;;;;;;;7.15;4.18;;;;;;;;;;6216572;28;20484;-74
2023/06/26 12:03:33;;;;;;;6.57;3.17;;;;;;;;;;6217672;28;20496;-74
2023/06/26 12:06:37;;;;;;;5.50;4.10;;;;;;;;;;6216739;28;20022;-74
2023/06/26 12:09:45;;;;;;;6.75;4.03;;;;;;;;;;6216936;28;20014;-74
2023/06/26 12:12:45;;;;;;;7.30;3.72;;;;;;;;;;6216538;28;20030;-74
2023/06/26 12:15:46;;;;;;;6.45;4.32;;;;;;;;;;6217997;28;20042;-74
2023/06/26 12:18:46;;;;;;;6.20;4.03;;;;;;;;;;6217735;28;20018;-74
2023/06/26 12:21:48;;;;;;;8.40;4.20;;;;;;;;;;6215545;28;20018;-74
2023/06/26 12:24:48;;;;;;;5.57;3.42;;;;;;;;;;6213497;28;20548;-74
2023/06/26 12:27:49;;;;;;;6.28;4.00;;;;;;;;;;6216665;28;20164;-74
2023/06/26 12:31:08;;;;;;;4.53;3.42;;;;;;;;;;6216223;28;20374;-74
2023/06/26 12:34:14;;;;;;;6.03;4.03;;;;;;;;;;6217101;28;20329;-82
2023/06/26 12:37:14;;;;;;;7.32;4.53;;;;;;;;;;6217630;28;20030;-85
2023/06/26 12:40:24;;;;;;;8.87;4.07;;;;;;;;;;6216913;28;20041;-85
2023/06/26 12:43:25;;;;;;;7.65;4.53;;;;;;;;;;6215599;28;20033;-81
2023/06/26 12:46:35;;;;;;;8.90;4.00;;;;;;;;;;6199654;28;20117;-85
2023/06/26 12:49:35;;;;;;;6.07;3.97;;;;;;;;;;6216288;28;20026;-85
2023/06/26 12:52:35;;;;;;;7.85;4.30;;;;;;;;;;6217211;28;20029;-84
2023/06/26 12:55:36;;;;;;;6.50;4.20;;;;;;;;;;6218395;28;20010;-86
2023/06/26 12:58:37;;;;;;;6.23;4.00;;;;;;;;;;6222843;28;20013;-84
2023/06/26 13:01:37;;;;;;;7.93;4.13;;;;;;;;;;6215654;28;20258;-84
2023/06/26 13:04:39;;;;;;;7.30;3.97;;;;;;;;;;6222380;28;20024;-83
2023/06/26 13:07:39;;;;;;;7.00;3.92;;;;;;;;;;6219122;28;20700;-83
2023/06/26 13:10:40;;;;;;;8.07;3.95;;;;;;;;;;6220365;28;20010;-82
2023/06/26 13:13:40;;;;;;;7.13;4.50;;;;;;;;;;6218829;28;20428;-82
2023/06/26 13:16:40;;;;;;;7.63;4.07;;;;;;;;;;6219370;28;20477;-86
2023/06/26 13:19:41;;;;;;;7.00;3.80;;;;;;;;;;6221279;28;20025;-80
2023/06/26 13:22:41;;;;;;;9.20;4.90;;;;;;;;;;6222329;28;20105;-85
2023/06/26 13:25:41;;;;;;;5.43;3.83;;;;;;;;;;6216356;28;20030;-84
2023/06/26 13:28:41;;;;;;;6.18;4.18;;;;;;;;;;6220101;28;20046;-83
2023/06/26 13:31:42;;;;;;;5.80;3.90;;;;;;;;;;6220265;28;20026;-74
2023/06/26 13:34:48;;;;;;;6.57;4.00;;;;;;;;;;6219395;28;20018;-75
2023/06/26 13:37:48;;;;;;;7.22;4.40;;;;;;;;;;6223747;28;20026;-74
2023/06/26 13:40:48;;;;;;;6.50;3.53;;;;;;;;;;6221657;28;20041;-74
2023/06/26 13:43:48;;;;;;;6.43;4.70;;;;;;;;;;6223164;28;20033;-84
2023/06/26 13:46:49;;;;;;;7.60;4.37;;;;;;;;;;6206416;28;20037;-86
2023/06/26 13:49:49;;;;;;;6.57;4.43;;;;;;;;;;6224845;28;20029;-82
2023/06/26 13:52:49;;;;;;;9.27;4.33;;;;;;;;;;6221917;28;20021;-82
2023/06/26 13:55:50;;;;;;;7.07;4.73;;;;;;;;;;6233695;28;20025;-77
2023/06/26 13:58:50;;;;;;;8.32;3.97;;;;;;;;;;6206532;28;20117;-86
2023/06/26 14:01:50;;;;;;;10.52;4.75;;;;;;;;;;6223644;28;20013;-87
2023/06/26 14:04:50;;;;;;;6.70;4.67;;;;;;;;;;6226991;28;20033;-85
2023/06/26 14:07:50;;;;;;;6.13;4.28;;;;;;;;;;6204299;28;20101;-88
2023/06/26 14:10:51;;;;;;;9.15;5.57;;;;;;;;;;6218974;28;20022;-84
2023/06/26 14:13:51;;;;;;;7.27;4.40;;;;;;;;;;6229437;28;20019;-86
2023/06/26 14:16:51;;;;;;;7.43;4.87;;;;;;;;;;6230263;28;20036;-86
2023/06/26 14:19:52;;;;;;;6.10;4.20;;;;;;;;;;6224235;28;20014;-83
2023/06/26 14:22:52;;;;;;;6.25;4.55;;;;;;;;;;6234355;28;20261;-87
2023/06/26 14:25:52;;;;;;;6.30;4.13;;;;;;;;;;6223299;28;20018;-83
2023/06/26 14:28:52;;;;;;;8.03;5.20;;;;;;;;;;6212867;28;20037;-83
2023/06/26 14:31:53;;;;;;;7.33;4.80;;;;;;;;;;6216823;28;20022;-83
2023/06/26 14:34:53;;;;;;;6.60;4.83;;;;;;;;;;6220076;28;20362;-84
2023/06/26 14:37:53;;;;;;;8.23;5.55;;;;;;;;;;6218031;28;20033;-84
2023/06/26 14:40:53;;;;;;;5.43;4.03;;;;;;;;;;6220562;28;20089;-86
2023/06/26 14:43:53;;;;;;;6.13;4.45;;;;;;;;;;6195514;28;20033;-84
2023/06/26 14:46:54;;;;;;;7.20;3.97;;;;;;;;;;6219905;28;20097;-85
2023/06/26 14:49:54;;;;;;;7.50;4.43;;;;;;;;;;6221588;28;20100;-85
2023/06/26 14:52:54;;;;;;;5.82;4.25;;;;;;;;;;6204045;28;20021;-85
2023/06/26 14:55:54;;;;;;;7.37;4.20;;;;;;;;;;6220065;28;20424;-87
2023/06/26 14:58:58;;;;;;;7.07;4.90;;;;;;;;;;6202232;28;20556;-83
2023/06/26 15:01:58;;;;;;;9.88;4.20;;;;;;;;;;6216025;28;20426;-86
2023/06/26 15:04:58;;;;;;;6.37;4.47;;;;;;;;;;6220125;28;20018;-86
2023/06/26 15:07:58;;;;;;;11.47;4.50;;;;;;;;;;6220533;28;20017;-86
2023/06/26 15:11:00;;;;;;;7.30;4.03;;;;;;;;;;6221558;28;20018;-85
2023/06/26 15:14:00;;;;;;;9.35;4.43;;;;;;;;;;6221146;28;20042;-83
2023/06/26 15:17:00;;;;;;;5.53;4.03;;;;;;;;;;6221876;28;20029;-84
2023/06/26 15:20:00;;;;;;;6.82;4.90;;;;;;;;;;6221509;28;20097;-85
2023/06/26 15:23:01;;;;;;;6.32;4.28;;;;;;;;;;6216678;28;20448;-85
2023/06/26 15:26:01;;;;;;;6.30;4.03;;;;;;;;;;6221085;28;20593;-85
2023/06/26 15:29:02;;;;;;;6.60;4.13;;;;;;;;;;6220867;28;20046;-86
2023/06/26 15:32:02;;;;;;;8.23;4.65;;;;;;;;;;6222066;28;20498;-83
2023/06/26 15:35:02;;;;;;;9.70;4.97;;;;;;;;;;6221722;28;20010;-85
2023/06/26 15:38:03;;;;;;;10.38;4.22;;;;;;;;;;6217732;28;20853;-86
2023/06/26 15:41:03;;;;;;;8.07;4.00;;;;;;;;;;6221948;28;20064;-85
2023/06/26 15:44:03;;;;;;;9.38;4.05;;;;;;;;;;6222597;28;20022;-87
2023/06/26 15:47:04;;;;;;;6.40;3.83;;;;;;;;;;6222395;28;20534;-84
2023/06/26 15:50:04;;;;;;;6.53;3.92;;;;;;;;;;6225112;28;20022;-85
2023/06/26 15:53:06;;;;;;;5.05;3.83;;;;;;;;;;6226847;28;20030;-85
2023/06/26 15:56:07;;;;;;;8.68;4.20;;;;;;;;;;6219942;28;20107;-86
2023/06/26 15:59:08;;;;;;;7.72;4.50;;;;;;;;;;6203505;28;20571;-86
2023/06/26 16:02:08;;;;;;;7.37;4.60;;;;;;;;;;6221584;28;20010;-86
2023/06/26 16:05:08;;;;;;;3.90;3.17;;;;;;;;;;6227512;28;20026;-85
2023/06/26 16:08:08;;;;;;;6.63;4.23;;;;;;;;;;6230502;28;20026;-86
2023/06/26 16:11:09;;;;;;;5.93;3.95;;;;;;;;;;6226824;28;20295;-87
2023/06/26 16:14:09;;;;;;;8.18;4.50;;;;;;;;;;6221400;28;20033;-85
2023/06/26 16:17:09;;;;;;;8.17;4.10;;;;;;;;;;6220327;28;20058;-84
2023/06/26 16:20:10;;;;;;;5.45;3.63;;;;;;;;;;6222154;28;20377;-86
2023/06/26 16:23:10;;;;;;;5.10;4.20;;;;;;;;;;6203647;28;20099;-84
2023/06/26 16:26:10;;;;;;;7.07;3.87;;;;;;;;;;6212495;28;20029;-86
2023/06/26 16:29:10;;;;;;;6.43;3.77;;;;;;;;;;6221594;28;20095;-87
2023/06/26 16:32:10;;;;;;;6.72;3.67;;;;;;;;;;6219115;28;20030;-87
2023/06/26 16:35:11;;;;;;;4.53;3.50;;;;;;;;;;6220467;28;20053;-83
2023/06/26 16:38:11;;;;;;;6.77;3.70;;;;;;;;;;6220050;28;20037;-83
2023/06/26 16:41:11;;;;;;;4.97;3.53;;;;;;;;;;6214122;28;20100;-86
2023/06/26 16:44:13;;;;;;;7.40;3.13;;;;;;;;;;6202533;28;20029;-85
2023/06/26 16:47:19;;;;;;;17.27;13.07;;;;;;;;;;6208663;28;20022;-86
2023/06/26 16:50:20;;;;;;;12.00;8.55;;;;;;;;;;6224680;28;20025;-86
2023/06/26 16:53:20;;;;;;;21.40;17.35;;;;;;;;;;6220384;28;20830;-87
2023/06/26 16:56:20;;;;;;;6.97;4.72;;;;;;;;;;6217164;28;20083;-88
2023/06/26 16:59:20;;;;;;;5.10;3.60;;;;;;;;;;6200823;28;20480;-84
2023/06/26 17:02:20;;;;;;;5.37;3.70;;;;;;;;;;6217134;28;20374;-85
2023/06/26 17:05:21;;;;;;;6.20;3.63;;;;;;;;;;6218394;28;20410;-85
2023/06/26 17:08:21;;;;;;;5.33;3.67;;;;;;;;;;6218936;28;20049;-85
2023/06/26 17:11:21;;;;;;;11.07;4.60;;;;;;;;;;6218202;28;20041;-85
2023/06/26 17:14:22;;;;;;;12.20;4.30;;;;;;;;;;6217853;28;20045;-76
2023/06/26 17:17:22;;;;;;;7.43;3.90;;;;;;;;;;6216836;28;20616;-76
2023/06/26 17:20:22;;;;;;;6.53;3.77;;;;;;;;;;6213029;28;20021;-76
2023/06/26 17:23:22;;;;;;;9.43;3.97;;;;;;;;;;6217227;28;20286;-76
2023/06/26 17:26:23;;;;;;;5.28;3.83;;;;;;;;;;6215338;28;20028;-76
2023/06/26 17:29:23;;;;;;;5.90;3.77;;;;;;;;;;6214266;28;20459;-76
2023/06/26 17:32:23;;;;;;;6.75;4.00;;;;;;;;;;6198824;28;20049;-76
2023/06/26 17:35:23;;;;;;;7.00;4.30;;;;;;;;;;6216586;28;20088;-75
2023/06/26 17:38:23;;;;;;;5.43;3.77;;;;;;;;;;6217376;28;20109;-75
2023/06/26 17:41:24;;;;;;;6.43;3.90;;;;;;;;;;6212491;28;20535;-75
2023/06/26 17:44:27;;;;;;;6.70;3.63;;;;;;;;;;6220916;28;20077;-75
2023/06/26 17:47:28;;;;;;;5.80;4.28;;;;;;;;;;6217125;28;20279;-75
2023/06/26 17:50:29;;;;;;;7.78;4.03;;;;;;;;;;6218174;28;20034;-75
2023/06/26 17:53:30;;;;;;;7.45;4.00;;;;;;;;;;6217175;28;20030;-75
2023/06/26 17:56:30;;;;;;;6.30;5.10;;;;;;;;;;6218117;28;20105;-75
2023/06/26 17:59:31;;;;;;;6.57;4.07;;;;;;;;;;6218132;28;20374;-75
2023/06/26 18:02:31;;;;;;;7.03;4.10;;;;;;;;;;6219781;28;20014;-75
2023/06/26 18:05:31;;;;;;;;;;;;;;;;;;6219990;28;20108;-75